EZY508 EGAA-EGGP
Flight info
| Callsign | EZY508 |
|---|---|
| Flight time | N/A |
| Altitude | 21000 |
| Route | LISBO L603 PEPOD Q38 SOSIM L28 PENIL |
| Aircraft | A320/M-SDE3FGHIRWY/LB1 |
Departure
| Time | 2026-04-29 11:02 |
|---|---|
| Airport | Belfast International Airport (EGAA) |
Arrival
| Time | N/A |
|---|---|
| Airport | Liverpool John Lennon Airport (EGGP) |
| Time | Latitude | Longitude | Altitude | Speed | Heading |
|---|---|---|---|---|---|
| 2026-04-29 10:48 | 54.66059 | -6.21791 | 272 ft | 0 kts | 285° |
| 2026-04-29 10:54 | 54.66056 | -6.21775 | 274 ft | 4 kts | 285° |
| 2026-04-29 10:55 | 54.66049 | -6.21730 | 277 ft | 4 kts | 285° |
| 2026-04-29 10:55 | 54.66044 | -6.21695 | 276 ft | 4 kts | 287° |
| 2026-04-29 10:55 | 54.66033 | -6.21655 | 276 ft | 4 kts | 326° |
| 2026-04-29 10:55 | 54.66013 | -6.21637 | 278 ft | 4 kts | 335° |
| 2026-04-29 10:56 | 54.65988 | -6.21617 | 278 ft | 4 kts | 335° |
| 2026-04-29 10:56 | 54.65966 | -6.21598 | 276 ft | 4 kts | 320° |
| 2026-04-29 10:56 | 54.65950 | -6.21563 | 272 ft | 4 kts | 282° |
| 2026-04-29 10:56 | 54.65950 | -6.21518 | 272 ft | 4 kts | 251° |
| 2026-04-29 10:57 | 54.65960 | -6.21478 | 274 ft | 4 kts | 245° |
| 2026-04-29 10:57 | 54.65967 | -6.21453 | 277 ft | 0 kts | 245° |
| 2026-04-29 10:58 | 54.65967 | -6.21454 | 277 ft | 1 kts | 245° |
| 2026-04-29 10:59 | 54.65942 | -6.21539 | 272 ft | 15 kts | 243° |
| 2026-04-29 10:59 | 54.65880 | -6.21764 | 272 ft | 26 kts | 245° |
| 2026-04-29 10:59 | 54.65807 | -6.22054 | 275 ft | 26 kts | 250° |
| 2026-04-29 10:59 | 54.65762 | -6.22351 | 272 ft | 26 kts | 263° |
| 2026-04-29 11:00 | 54.65742 | -6.22646 | 272 ft | 24 kts | 263° |
| 2026-04-29 11:00 | 54.65700 | -6.22906 | 272 ft | 21 kts | 237° |
| 2026-04-29 11:00 | 54.65623 | -6.23108 | 272 ft | 19 kts | 233° |
| 2026-04-29 11:00 | 54.65543 | -6.23285 | 272 ft | 17 kts | 227° |
| 2026-04-29 11:01 | 54.65441 | -6.23377 | 272 ft | 16 kts | 199° |
| 2026-04-29 11:01 | 54.65333 | -6.23371 | 272 ft | 17 kts | 159° |
| 2026-04-29 11:01 | 54.65288 | -6.23302 | 272 ft | 2 kts | 50° |
| 2026-04-29 11:01 | 54.65291 | -6.23285 | 272 ft | 5 kts | 66° |
| 2026-04-29 11:02 | 54.65400 | -6.22870 | 272 ft | 76 kts | 65° |
| 2026-04-29 11:02 | 54.65714 | -6.21683 | 275 ft | 138 kts | 66° |
| 2026-04-29 11:02 | 54.66152 | -6.20105 | 802 ft | 148 kts | 64° |
| 2026-04-29 11:02 | 54.66364 | -6.18337 | 1468 ft | 158 kts | 98° |
| 2026-04-29 11:03 | 54.65864 | -6.16573 | 2006 ft | 177 kts | 131° |
| 2026-04-29 11:03 | 54.64879 | -6.15056 | 2393 ft | 201 kts | 135° |
| 2026-04-29 11:03 | 54.63772 | -6.13330 | 2823 ft | 227 kts | 135° |
| 2026-04-29 11:03 | 54.62545 | -6.11403 | 3405 ft | 248 kts | 134° |
| 2026-04-29 11:04 | 54.61246 | -6.09371 | 4279 ft | 256 kts | 134° |
| 2026-04-29 11:04 | 54.59912 | -6.07295 | 5257 ft | 261 kts | 134° |
| 2026-04-29 11:04 | 54.58552 | -6.05182 | 6215 ft | 265 kts | 135° |
| 2026-04-29 11:04 | 54.57171 | -6.03037 | 7205 ft | 269 kts | 134° |
| 2026-04-29 11:05 | 54.55765 | -6.00858 | 8157 ft | 273 kts | 134° |
| 2026-04-29 11:05 | 54.54343 | -5.98658 | 9065 ft | 278 kts | 134° |
| 2026-04-29 11:05 | 54.52894 | -5.96416 | 9955 ft | 282 kts | 134° |
| 2026-04-29 11:05 | 54.51436 | -5.94162 | 10708 ft | 293 kts | 134° |
| 2026-04-29 11:06 | 54.49864 | -5.91729 | 11060 ft | 315 kts | 134° |
| 2026-04-29 11:06 | 54.48199 | -5.89157 | 11686 ft | 325 kts | 134° |
| 2026-04-29 11:06 | 54.46500 | -5.86539 | 12480 ft | 330 kts | 134° |
| 2026-04-29 11:06 | 54.44777 | -5.83896 | 13284 ft | 334 kts | 133° |
| 2026-04-29 11:07 | 54.43031 | -5.81216 | 14097 ft | 338 kts | 133° |
| 2026-04-29 11:07 | 54.41265 | -5.78509 | 14820 ft | 342 kts | 133° |
| 2026-04-29 11:07 | 54.39478 | -5.75777 | 15523 ft | 346 kts | 133° |
| 2026-04-29 11:07 | 54.37670 | -5.73014 | 16222 ft | 350 kts | 133° |
| 2026-04-29 11:08 | 54.35844 | -5.70219 | 16926 ft | 353 kts | 133° |
| 2026-04-29 11:08 | 54.34000 | -5.67397 | 17615 ft | 357 kts | 133° |
| 2026-04-29 11:08 | 54.32135 | -5.64552 | 18296 ft | 361 kts | 133° |
| 2026-04-29 11:08 | 54.30247 | -5.61679 | 18949 ft | 365 kts | 133° |
| 2026-04-29 11:09 | 54.28335 | -5.58782 | 19546 ft | 368 kts | 133° |
| 2026-04-29 11:09 | 54.26577 | -5.55636 | 20138 ft | 365 kts | 122° |
| 2026-04-29 11:09 | 54.25080 | -5.52115 | 20709 ft | 367 kts | 120° |
| 2026-04-29 11:09 | 54.23588 | -5.48548 | 21245 ft | 371 kts | 120° |
| 2026-04-29 11:10 | 54.22104 | -5.45011 | 21403 ft | 371 kts | 120° |
| 2026-04-29 11:10 | 54.20619 | -5.41501 | 21437 ft | 356 kts | 120° |
| 2026-04-29 11:10 | 54.19183 | -5.38131 | 21438 ft | 348 kts | 120° |
| 2026-04-29 11:10 | 54.17770 | -5.34808 | 21437 ft | 346 kts | 120° |
| 2026-04-29 11:11 | 54.16361 | -5.31486 | 21436 ft | 345 kts | 120° |
| 2026-04-29 11:11 | 54.14957 | -5.28172 | 21435 ft | 344 kts | 120° |
| 2026-04-29 11:11 | 54.13551 | -5.24858 | 21432 ft | 344 kts | 120° |
| 2026-04-29 11:11 | 54.12146 | -5.21552 | 21430 ft | 344 kts | 120° |
| 2026-04-29 11:12 | 54.10740 | -5.18253 | 21428 ft | 344 kts | 120° |
| 2026-04-29 11:12 | 54.09331 | -5.14955 | 21428 ft | 344 kts | 120° |
| 2026-04-29 11:12 | 54.07922 | -5.11664 | 21426 ft | 344 kts | 120° |
| 2026-04-29 11:12 | 54.06511 | -5.08376 | 21424 ft | 344 kts | 120° |
| 2026-04-29 11:13 | 54.05100 | -5.05095 | 21422 ft | 344 kts | 120° |
| 2026-04-29 11:13 | 54.03686 | -5.01810 | 21424 ft | 344 kts | 120° |
| 2026-04-29 11:13 | 54.02274 | -4.98536 | 21423 ft | 344 kts | 120° |
| 2026-04-29 11:13 | 54.00857 | -4.95255 | 21423 ft | 344 kts | 120° |
| 2026-04-29 11:14 | 53.99446 | -4.91986 | 21422 ft | 343 kts | 120° |
| 2026-04-29 11:14 | 53.98035 | -4.88712 | 21421 ft | 343 kts | 120° |
| 2026-04-29 11:14 | 53.96625 | -4.85441 | 21424 ft | 343 kts | 120° |
| 2026-04-29 11:14 | 53.95215 | -4.82176 | 21423 ft | 343 kts | 120° |
| 2026-04-29 11:15 | 53.93800 | -4.78918 | 21423 ft | 343 kts | 121° |
| 2026-04-29 11:15 | 53.92385 | -4.75665 | 21422 ft | 342 kts | 121° |
| 2026-04-29 11:15 | 53.90973 | -4.72422 | 21421 ft | 342 kts | 121° |
| 2026-04-29 11:15 | 53.89558 | -4.69175 | 21425 ft | 342 kts | 121° |
| 2026-04-29 11:16 | 53.88139 | -4.65926 | 21409 ft | 342 kts | 121° |
| 2026-04-29 11:16 | 53.86724 | -4.62686 | 21414 ft | 342 kts | 121° |
| 2026-04-29 11:16 | 53.85313 | -4.59455 | 21417 ft | 342 kts | 120° |
| 2026-04-29 11:16 | 53.83902 | -4.56226 | 21406 ft | 341 kts | 121° |
| 2026-04-29 11:17 | 53.82489 | -4.52998 | 21417 ft | 341 kts | 120° |
| 2026-04-29 11:17 | 53.81276 | -4.49596 | 21413 ft | 334 kts | 109° |
| 2026-04-29 11:17 | 53.80413 | -4.45966 | 21404 ft | 332 kts | 106° |
| 2026-04-29 11:17 | 53.79588 | -4.42383 | 21341 ft | 322 kts | 106° |
| 2026-04-29 11:18 | 53.78777 | -4.38898 | 21032 ft | 316 kts | 106° |
| 2026-04-29 11:18 | 53.77985 | -4.35500 | 20666 ft | 313 kts | 106° |
| 2026-04-29 11:18 | 53.77186 | -4.32087 | 20281 ft | 313 kts | 106° |
| 2026-04-29 11:18 | 53.76351 | -4.28484 | 19896 ft | 348 kts | 107° |
| 2026-04-29 11:19 | 53.75442 | -4.24547 | 19502 ft | 365 kts | 107° |
| 2026-04-29 11:19 | 53.74507 | -4.20541 | 19038 ft | 367 kts | 107° |
| 2026-04-29 11:19 | 53.73561 | -4.16550 | 18553 ft | 366 kts | 108° |
| 2026-04-29 11:19 | 53.72614 | -4.12577 | 18020 ft | 363 kts | 108° |
| 2026-04-29 11:20 | 53.71675 | -4.08631 | 17477 ft | 360 kts | 108° |
| 2026-04-29 11:20 | 53.70748 | -4.04725 | 16973 ft | 358 kts | 108° |
| 2026-04-29 11:20 | 53.69825 | -4.00840 | 16457 ft | 355 kts | 108° |
| 2026-04-29 11:20 | 53.68912 | -3.96994 | 15958 ft | 352 kts | 108° |
| 2026-04-29 11:21 | 53.68007 | -3.93174 | 15460 ft | 349 kts | 108° |
| 2026-04-29 11:21 | 53.67108 | -3.89382 | 14980 ft | 347 kts | 108° |
| 2026-04-29 11:21 | 53.66215 | -3.85623 | 14495 ft | 344 kts | 108° |
| 2026-04-29 11:21 | 53.65325 | -3.81890 | 13993 ft | 342 kts | 109° |
| 2026-04-29 11:22 | 53.64441 | -3.78190 | 13470 ft | 339 kts | 109° |
| 2026-04-29 11:22 | 53.63560 | -3.74523 | 12940 ft | 336 kts | 109° |
| 2026-04-29 11:22 | 53.62685 | -3.70893 | 12427 ft | 333 kts | 109° |
| 2026-04-29 11:22 | 53.61756 | -3.67329 | 11915 ft | 333 kts | 116° |
| 2026-04-29 11:23 | 53.60316 | -3.64259 | 11420 ft | 336 kts | 131° |
| 2026-04-29 11:23 | 53.58659 | -3.61566 | 10936 ft | 334 kts | 132° |
| 2026-04-29 11:23 | 53.56984 | -3.58858 | 10451 ft | 332 kts | 132° |
| 2026-04-29 11:23 | 53.55322 | -3.56174 | 9938 ft | 330 kts | 132° |
| 2026-04-29 11:24 | 53.53675 | -3.53519 | 9413 ft | 327 kts | 132° |
| 2026-04-29 11:24 | 53.52039 | -3.50885 | 8892 ft | 324 kts | 133° |
| 2026-04-29 11:24 | 53.50417 | -3.48271 | 8368 ft | 321 kts | 133° |
| 2026-04-29 11:24 | 53.48825 | -3.45657 | 7880 ft | 317 kts | 129° |
| 2026-04-29 11:25 | 53.47636 | -3.42614 | 7472 ft | 309 kts | 113° |
| 2026-04-29 11:25 | 53.46714 | -3.39357 | 7373 ft | 309 kts | 114° |
| 2026-04-29 11:25 | 53.45782 | -3.36116 | 7385 ft | 302 kts | 114° |
| 2026-04-29 11:25 | 53.44891 | -3.33051 | 7333 ft | 283 kts | 114° |
| 2026-04-29 11:26 | 53.42921 | -3.27618 | 6063 ft | 272 kts | 135° |
| 2026-04-29 11:26 | 53.41466 | -3.25611 | 5281 ft | 269 kts | 138° |
| 2026-04-29 11:26 | 53.40032 | -3.23679 | 4743 ft | 256 kts | 138° |
| 2026-04-29 11:27 | 53.38675 | -3.21861 | 4205 ft | 246 kts | 138° |
| 2026-04-29 11:27 | 53.37366 | -3.20103 | 3519 ft | 245 kts | 138° |
| 2026-04-29 11:27 | 53.36040 | -3.18314 | 3080 ft | 244 kts | 137° |
| 2026-04-29 11:27 | 53.34719 | -3.16531 | 2637 ft | 243 kts | 138° |
| 2026-04-29 11:28 | 53.33455 | -3.14739 | 2491 ft | 230 kts | 130° |
| 2026-04-29 11:28 | 53.32607 | -3.12634 | 2497 ft | 211 kts | 111° |
| 2026-04-29 11:28 | 53.32235 | -3.10335 | 2493 ft | 198 kts | 94° |
| 2026-04-29 11:28 | 53.32267 | -3.08138 | 2494 ft | 183 kts | 85° |
| 2026-04-29 11:29 | 53.32369 | -3.06049 | 2358 ft | 179 kts | 85° |
| 2026-04-29 11:29 | 53.32469 | -3.03987 | 2134 ft | 174 kts | 85° |
| 2026-04-29 11:29 | 53.32564 | -3.01997 | 1933 ft | 169 kts | 85° |
| 2026-04-29 11:29 | 53.32656 | -3.00068 | 1683 ft | 161 kts | 85° |
| 2026-04-29 11:30 | 53.32741 | -2.98270 | 1491 ft | 152 kts | 85° |
| 2026-04-29 11:30 | 53.32823 | -2.96534 | 1269 ft | 146 kts | 85° |
| 2026-04-29 11:30 | 53.32902 | -2.94897 | 1054 ft | 136 kts | 85° |
| 2026-04-29 11:30 | 53.32979 | -2.93335 | 882 ft | 132 kts | 87° |
| 2026-04-29 11:31 | 53.33061 | -2.91800 | 742 ft | 132 kts | 88° |
| 2026-04-29 11:31 | 53.33137 | -2.90275 | 588 ft | 131 kts | 88° |
| 2026-04-29 11:31 | 53.33205 | -2.88751 | 410 ft | 135 kts | 88° |
| 2026-04-29 11:31 | 53.33266 | -2.87212 | 242 ft | 131 kts | 87° |
| 2026-04-29 11:32 | 53.33334 | -2.85713 | 92 ft | 121 kts | 87° |
| 2026-04-29 11:32 | 53.33376 | -2.84642 | 86 ft | 58 kts | 84° |